Time;durP1;ratioP1;P1;durP2;ratioP2;P2;SDS_P1;SDS_P2;PMS_P1;PMS_P2;Temp;Humidity;BMP_temperature;BMP_pressure;BME280_temperature;BME280_humidity;BME280_pressure;Samples;Min_cycle;Max_cycle;Signal;HPM_P1;HPM_P2
2021/12/25 00:00:15;;;;;;;30.53;17.97;;;3.90;99.90;;;;;;5024003;28;20437;-59
2021/12/25 00:02:42;;;;;;;31.20;16.77;;;3.90;99.90;;;;;;5023310;28;20446;-59
2021/12/25 00:05:08;;;;;;;29.33;16.03;;;3.90;99.90;;;;;;5020957;28;20450;-59
2021/12/25 00:07:34;;;;;;;29.90;17.13;;;3.90;99.90;;;;;;5031993;28;20994;-59
2021/12/25 00:10:00;;;;;;;31.20;18.07;;;3.90;99.90;;;;;;5020623;28;20430;-59
2021/12/25 00:12:26;;;;;;;37.20;18.07;;;3.90;99.90;;;;;;5026462;28;20573;-60
2021/12/25 00:14:52;;;;;;;31.00;16.70;;;3.90;99.90;;;;;;5021808;28;20218;-59
2021/12/25 00:17:18;;;;;;;27.60;16.47;;;3.90;99.90;;;;;;5012128;28;20515;-59
2021/12/25 00:19:44;;;;;;;30.67;16.07;;;3.90;99.90;;;;;;5026200;28;20179;-59
2021/12/25 00:22:10;;;;;;;33.60;17.87;;;3.90;99.90;;;;;;5026282;28;20677;-60
2021/12/25 00:27:11;;;;;;;35.77;18.10;;;3.90;99.90;;;;;;4977625;28;20495;-58
2021/12/25 00:34:46;;;;;;;36.17;17.53;;;4.00;99.90;;;;;;4983429;28;20450;-58
2021/12/25 00:37:12;;;;;;;37.60;18.93;;;4.00;99.90;;;;;;5000176;28;20420;-59
2021/12/25 00:39:38;;;;;;;35.20;18.30;;;4.00;99.90;;;;;;4996419;28;20431;-57
2021/12/25 00:42:05;;;;;;;34.90;17.97;;;4.10;99.90;;;;;;4998734;28;20358;-57
2021/12/25 00:44:32;;;;;;;36.63;19.60;;;4.10;99.90;;;;;;5001944;28;20183;-57
2021/12/25 00:46:58;;;;;;;39.10;18.20;;;4.10;99.90;;;;;;5004360;28;20577;-56
2021/12/25 00:49:24;;;;;;;32.90;17.30;;;4.10;99.90;;;;;;5014373;28;20437;-55
2021/12/25 00:51:50;;;;;;;36.87;18.73;;;4.10;99.90;;;;;;4998168;28;20286;-57
2021/12/25 00:54:16;;;;;;;31.97;17.03;;;4.10;99.90;;;;;;5000791;28;21651;-57
2021/12/25 00:56:42;;;;;;;37.87;19.90;;;4.10;99.90;;;;;;5000674;28;20204;-55
2021/12/25 00:59:09;;;;;;;29.27;16.13;;;4.10;99.90;;;;;;4998866;28;20643;-55
2021/12/25 01:01:35;;;;;;;30.17;17.50;;;4.20;99.90;;;;;;5001799;28;20442;-57
2021/12/25 01:04:00;;;;;;;34.70;17.00;;;4.20;99.90;;;;;;5001307;28;20427;-58
2021/12/25 01:06:26;;;;;;;30.20;17.30;;;4.20;99.90;;;;;;5001870;28;20485;-58
2021/12/25 01:08:52;;;;;;;30.27;16.60;;;4.20;99.90;;;;;;5006494;28;20254;-60
2021/12/25 01:11:18;;;;;;;33.60;17.30;;;4.20;99.90;;;;;;5024400;28;20195;-60
2021/12/25 01:13:51;;;;;;;31.67;17.53;;;4.20;99.90;;;;;;5020948;28;20373;-58
2021/12/25 01:19:28;;;;;;;48.57;22.93;;;4.20;99.90;;;;;;5003049;28;20766;-57
2021/12/25 01:22:17;;;;;;;;;;;;;;;;;;;;;
2021/12/25 01:27:21;;;;;;;31.63;15.73;;;4.20;99.90;;;;;;5010385;28;20539;-60
2021/12/25 01:48:19;;;;;;;28.53;16.70;;;3.60;99.90;;;;;;5015382;28;20922;-59
2021/12/25 01:50:46;;;;;;;38.80;17.53;;;3.60;99.90;;;;;;5012267;28;20440;-56
2021/12/25 01:53:12;;;;;;;45.07;18.93;;;3.50;99.90;;;;;;5003104;28;20535;-59
2021/12/25 01:55:38;;;;;;;46.30;20.70;;;3.50;99.90;;;;;;5004225;28;21024;-56
2021/12/25 01:58:04;;;;;;;37.63;20.13;;;3.40;99.90;;;;;;4999209;28;21909;-59
2021/12/25 02:00:36;;;;;;;38.07;19.20;;;3.40;99.90;;;;;;5000281;28;20470;-56
2021/12/25 02:03:06;;;;;;;43.10;20.20;;;3.30;99.90;;;;;;5009650;28;20447;-56
2021/12/25 02:05:32;;;;;;;39.90;19.87;;;3.30;99.90;;;;;;4998259;28;20435;-57
2021/12/25 02:07:58;;;;;;;40.80;20.30;;;3.30;99.90;;;;;;5007876;28;20466;-56
2021/12/25 02:10:23;;;;;;;42.47;18.27;;;3.40;99.90;;;;;;5000743;28;20550;-57
2021/12/25 02:12:50;;;;;;;40.67;20.73;;;3.40;99.90;;;;;;5007948;28;20192;-56
2021/12/25 02:15:19;;;;;;;40.67;18.60;;;3.40;99.90;;;;;;5007535;28;20200;-57
2021/12/25 02:20:29;;;;;;;60.67;21.03;;;3.40;99.90;;;;;;5009706;28;20489;-58
2021/12/25 02:23:01;;;;;;;58.33;19.50;;;3.40;99.90;;;;;;5024170;28;21404;-58
2021/12/25 02:25:28;;;;;;;47.97;20.03;;;3.30;99.90;;;;;;5008371;28;20477;-58
2021/12/25 02:27:54;;;;;;;41.90;18.73;;;3.30;99.90;;;;;;5007480;28;21072;-60
2021/12/25 02:30:19;;;;;;;43.80;19.30;;;3.30;99.90;;;;;;5008000;28;20461;-57
2021/12/25 02:32:46;;;;;;;46.27;19.00;;;3.30;99.90;;;;;;5005344;28;20698;-56
2021/12/25 02:35:13;;;;;;;34.23;17.50;;;3.30;99.90;;;;;;5007482;28;20977;-57
2021/12/25 02:37:40;;;;;;;37.33;17.37;;;3.30;99.90;;;;;;5006507;28;20423;-59
2021/12/25 02:40:08;;;;;;;40.53;17.80;;;3.30;99.90;;;;;;5008109;28;20763;-58
2021/12/25 02:42:34;;;;;;;59.07;17.07;;;3.30;99.90;;;;;;5007052;28;20438;-57
2021/12/25 02:45:00;;;;;;;40.80;18.10;;;3.20;99.90;;;;;;5008224;28;20952;-59
2021/12/25 02:47:29;;;;;;;68.83;20.13;;;3.20;99.90;;;;;;5003793;28;20431;-58
2021/12/25 02:49:55;;;;;;;37.17;18.57;;;3.20;99.90;;;;;;5006497;28;20976;-57
2021/12/25 02:52:21;;;;;;;30.47;16.97;;;3.20;99.90;;;;;;5007078;28;20455;-54
2021/12/25 02:54:46;;;;;;;37.87;17.30;;;3.20;99.90;;;;;;5005884;28;20574;-59
2021/12/25 02:57:13;;;;;;;35.70;17.00;;;3.20;99.90;;;;;;5007635;28;20298;-58
2021/12/25 02:59:39;;;;;;;67.80;17.83;;;3.20;99.90;;;;;;5009948;28;20526;-57
2021/12/25 03:02:10;;;;;;;43.73;17.30;;;3.20;99.90;;;;;;5007680;28;20525;-56
2021/12/25 03:04:41;;;;;;;49.47;17.23;;;3.20;99.90;;;;;;5006506;28;20439;-58
2021/12/25 03:07:08;;;;;;;64.87;18.00;;;3.20;99.90;;;;;;5006076;28;20574;-58
2021/12/25 03:09:34;;;;;;;240.73;21.67;;;3.20;99.90;;;;;;5004042;28;20419;-57
2021/12/25 03:12:00;;;;;;;89.57;17.60;;;3.20;99.90;;;;;;5007058;28;20414;-57
2021/12/25 03:14:37;;;;;;;50.33;15.23;;;3.20;99.90;;;;;;5005610;28;20411;-54
2021/12/25 03:17:03;;;;;;;184.27;20.37;;;3.10;99.90;;;;;;5003853;28;20538;-56
2021/12/25 03:19:32;;;;;;;158.90;16.90;;;3.10;99.90;;;;;;5005195;28;20498;-57
2021/12/25 03:21:59;;;;;;;245.97;21.47;;;3.10;99.90;;;;;;5003750;28;20441;-58
2021/12/25 03:24:27;;;;;;;93.00;17.50;;;3.00;99.90;;;;;;5004457;28;20601;-59
2021/12/25 03:26:55;;;;;;;131.03;18.57;;;3.00;99.90;;;;;;5005149;28;20481;-58
2021/12/25 03:29:22;;;;;;;238.70;19.63;;;3.00;99.90;;;;;;5004955;28;20443;-58
2021/12/25 03:31:49;;;;;;;102.20;18.50;;;3.00;99.90;;;;;;5005133;28;20426;-58
2021/12/25 03:34:15;;;;;;;48.30;15.37;;;3.00;99.90;;;;;;5005465;28;20516;-58
2021/12/25 03:36:41;;;;;;;38.73;14.83;;;3.00;99.90;;;;;;5006138;28;20433;-58
2021/12/25 03:39:07;;;;;;;42.80;15.80;;;3.10;99.90;;;;;;5004288;28;20427;-56
2021/12/25 03:41:33;;;;;;;80.30;19.03;;;3.10;99.90;;;;;;5005690;28;20171;-57
2021/12/25 03:44:00;;;;;;;56.77;15.50;;;3.10;99.90;;;;;;5007680;28;20181;-57
2021/12/25 03:46:31;;;;;;;71.87;16.87;;;3.10;99.90;;;;;;5007538;28;20974;-57
2021/12/25 03:49:04;;;;;;;169.63;20.37;;;3.10;99.90;;;;;;5005110;28;20569;-58
2021/12/25 03:59:52;;;;;;;192.17;19.63;;;3.00;99.90;;;;;;5009995;28;20474;-58
2021/12/25 04:02:24;;;;;;;135.57;19.33;;;3.00;99.90;;;;;;5007167;28;20535;-57
2021/12/25 04:04:50;;;;;;;172.60;19.83;;;3.00;99.90;;;;;;5017638;28;20423;-63
2021/12/25 04:09:45;;;;;;;211.37;20.63;;;3.00;99.90;;;;;;5005101;28;20436;-58
2021/12/25 04:12:12;;;;;;;159.90;18.37;;;3.00;99.90;;;;;;5004851;28;20437;-59
2021/12/25 04:14:39;;;;;;;183.77;20.00;;;2.90;99.90;;;;;;5005624;28;20422;-57
2021/12/25 04:17:05;;;;;;;294.87;25.07;;;2.90;99.90;;;;;;5005724;28;20950;-56
2021/12/25 04:19:31;;;;;;;307.80;25.40;;;2.90;99.90;;;;;;5005388;28;20865;-56
2021/12/25 04:22:04;;;;;;;260.37;25.50;;;2.90;99.90;;;;;;5006141;28;20416;-55
2021/12/25 04:24:34;;;;;;;120.60;20.27;;;2.90;99.90;;;;;;5004803;28;20291;-57
2021/12/25 04:27:00;;;;;;;83.23;18.57;;;2.80;99.90;;;;;;5019576;28;20490;-59
2021/12/25 04:47:50;;;;;;;111.90;17.50;;;2.90;99.90;;;;;;5004245;28;20469;-57
2021/12/25 05:02:23;;;;;;;179.43;18.07;;;2.80;99.90;;;;;;5008158;28;20464;-57
2021/12/25 05:04:54;;;;;;;111.40;18.43;;;2.80;99.90;;;;;;5010407;28;20419;-57
2021/12/25 05:07:20;;;;;;;83.03;17.07;;;2.80;99.90;;;;;;5013141;28;20430;-56
2021/12/25 05:09:46;;;;;;;142.67;20.20;;;2.80;99.90;;;;;;5026528;28;20442;-60
2021/12/25 05:12:11;;;;;;;73.37;18.87;;;2.80;99.90;;;;;;5031006;28;20184;-59
2021/12/25 05:14:39;;;;;;;106.97;18.83;;;2.80;99.90;;;;;;5029261;28;20182;-58
2021/12/25 05:17:06;;;;;;;131.90;16.80;;;2.80;99.90;;;;;;5027539;28;20690;-59
2021/12/25 05:19:32;;;;;;;77.83;15.90;;;2.80;99.90;;;;;;5031681;28;20499;-61
2021/12/25 05:21:58;;;;;;;100.03;17.10;;;2.80;99.90;;;;;;5031666;28;20438;-61
2021/12/25 05:24:24;;;;;;;101.73;19.07;;;2.80;99.90;;;;;;5031911;28;20184;-61
2021/12/25 05:26:49;;;;;;;124.63;19.10;;;2.80;99.90;;;;;;5031017;28;20197;-61
2021/12/25 05:29:23;;;;;;;68.10;15.43;;;2.80;99.90;;;;;;5030306;28;20179;-60
2021/12/25 05:31:49;;;;;;;57.50;14.13;;;2.90;99.90;;;;;;5030102;28;20191;-65
2021/12/25 05:34:14;;;;;;;61.47;13.60;;;2.90;99.90;;;;;;5029486;28;20466;-60
2021/12/25 05:36:40;;;;;;;56.43;13.00;;;2.90;99.90;;;;;;5016499;28;20984;-57
2021/12/25 05:39:09;;;;;;;40.73;12.60;;;2.90;99.90;;;;;;5023421;28;20164;-61
2021/12/25 05:41:35;;;;;;;38.70;12.90;;;2.90;99.90;;;;;;5033483;28;20161;-61
2021/12/25 05:44:01;;;;;;;46.73;14.23;;;2.90;99.90;;;;;;5032013;28;20437;-60
2021/12/25 05:46:27;;;;;;;46.43;14.00;;;2.90;99.90;;;;;;5027200;28;20206;-60
2021/12/25 05:48:53;;;;;;;96.93;15.17;;;2.90;99.90;;;;;;5015417;28;20187;-57
2021/12/25 05:51:19;;;;;;;41.13;13.90;;;2.90;99.90;;;;;;5006507;28;20811;-58
2021/12/25 05:53:45;;;;;;;56.63;14.40;;;2.90;99.90;;;;;;5005537;28;20465;-56
2021/12/25 05:56:11;;;;;;;56.73;15.43;;;2.90;99.90;;;;;;5005268;28;20992;-58
2021/12/25 05:58:37;;;;;;;108.10;16.40;;;2.90;99.90;;;;;;5008062;28;20421;-56
2021/12/25 06:01:04;;;;;;;49.13;13.40;;;2.90;99.90;;;;;;5008103;28;20918;-58
2021/12/25 06:03:30;;;;;;;50.23;15.47;;;2.90;99.90;;;;;;5008533;28;20176;-57
2021/12/25 06:05:57;;;;;;;52.63;14.10;;;2.90;99.90;;;;;;5005910;28;20996;-58
2021/12/25 06:08:23;;;;;;;122.13;15.77;;;2.90;99.90;;;;;;5006881;28;20497;-57
2021/12/25 06:10:49;;;;;;;52.43;13.57;;;2.90;99.90;;;;;;5004606;28;20439;-58
2021/12/25 06:13:19;;;;;;;38.30;14.07;;;2.90;99.90;;;;;;5006343;28;20504;-56
2021/12/25 06:15:44;;;;;;;38.33;14.43;;;2.80;99.90;;;;;;5018561;28;20188;-61
2021/12/25 06:18:11;;;;;;;44.30;13.77;;;2.80;99.90;;;;;;5031734;28;20432;-61
2021/12/25 06:20:37;;;;;;;51.50;14.10;;;2.80;99.90;;;;;;5019044;28;20207;-56
2021/12/25 06:23:03;;;;;;;43.30;12.77;;;2.80;99.90;;;;;;5013753;28;20463;-58
2021/12/25 06:25:29;;;;;;;50.90;15.23;;;2.80;99.90;;;;;;5026137;22;20494;-59
2021/12/25 06:27:54;;;;;;;66.73;14.53;;;2.80;99.90;;;;;;5041795;28;20187;-61
2021/12/25 06:30:20;;;;;;;38.67;14.80;;;2.80;99.90;;;;;;5026373;28;20828;-60
2021/12/25 06:32:46;;;;;;;87.67;16.63;;;2.80;99.90;;;;;;5028209;28;20207;-61
2021/12/25 06:35:12;;;;;;;85.23;17.30;;;2.80;99.90;;;;;;5025644;28;20263;-60
2021/12/25 06:37:40;;;;;;;37.93;13.80;;;2.80;99.90;;;;;;5010198;28;20258;-60
2021/12/25 06:40:09;;;;;;;82.67;13.87;;;2.80;99.90;;;;;;5007581;28;20488;-60
2021/12/25 06:42:35;;;;;;;137.00;16.67;;;2.70;99.90;;;;;;5008235;28;20479;-62
2021/12/25 06:45:01;;;;;;;177.17;18.27;;;2.70;99.90;;;;;;5008134;28;20427;-60
2021/12/25 06:47:27;;;;;;;67.47;13.97;;;2.70;99.90;;;;;;5009491;28;20223;-61
2021/12/25 06:49:53;;;;;;;83.97;18.57;;;2.70;99.90;;;;;;5007208;28;20509;-60
2021/12/25 06:52:19;;;;;;;143.97;25.00;;;2.70;99.90;;;;;;5008057;28;20208;-60
2021/12/25 06:54:44;;;;;;;124.63;19.80;;;2.70;99.90;;;;;;5007837;28;20435;-61
2021/12/25 06:57:10;;;;;;;83.33;17.60;;;2.70;99.90;;;;;;5005016;28;20230;-61
2021/12/25 06:59:36;;;;;;;70.27;16.23;;;2.70;99.90;;;;;;5009364;28;20172;-61
2021/12/25 07:02:02;;;;;;;162.90;18.17;;;2.70;99.90;;;;;;5006715;28;20258;-60
2021/12/25 07:04:27;;;;;;;122.20;17.00;;;2.70;99.90;;;;;;5008939;28;20176;-59
2021/12/25 07:06:53;;;;;;;87.80;16.23;;;2.70;99.90;;;;;;5008544;28;20516;-60
2021/12/25 07:09:19;;;;;;;131.53;16.37;;;2.70;99.90;;;;;;5008002;28;20263;-61
2021/12/25 07:11:45;;;;;;;121.83;17.10;;;2.70;99.90;;;;;;5007262;28;20722;-60
2021/12/25 07:14:12;;;;;;;59.30;13.93;;;2.70;99.90;;;;;;5007334;28;20471;-61
2021/12/25 07:16:38;;;;;;;80.53;14.60;;;2.70;99.90;;;;;;5007787;28;20662;-60
2021/12/25 07:19:04;;;;;;;71.70;15.23;;;2.70;99.90;;;;;;5006806;28;20786;-62
2021/12/25 07:21:30;;;;;;;62.90;13.30;;;2.70;99.90;;;;;;5006586;28;21006;-61
2021/12/25 07:23:56;;;;;;;92.20;15.00;;;2.70;99.90;;;;;;5007292;28;20223;-60
2021/12/25 07:26:21;;;;;;;51.53;14.57;;;2.70;99.90;;;;;;5006152;28;20532;-60
2021/12/25 07:28:48;;;;;;;62.43;14.00;;;2.70;99.90;;;;;;5008771;28;20714;-59
2021/12/25 07:31:15;;;;;;;90.03;17.23;;;2.70;99.90;;;;;;5005547;28;20188;-61
2021/12/25 07:33:40;;;;;;;202.73;18.73;;;2.70;99.90;;;;;;5004947;28;20487;-59
2021/12/25 07:36:08;;;;;;;87.93;17.80;;;2.70;99.90;;;;;;5006378;28;20879;-61
2021/12/25 07:38:34;;;;;;;36.07;16.13;;;2.60;99.90;;;;;;5003516;28;20219;-61
2021/12/25 07:40:59;;;;;;;36.70;14.47;;;2.60;99.90;;;;;;5002890;28;20462;-60
2021/12/25 07:43:25;;;;;;;38.23;14.00;;;2.70;99.90;;;;;;5007109;28;20234;-60
2021/12/25 07:45:52;;;;;;;47.70;14.40;;;2.70;99.90;;;;;;5005161;28;20203;-61
2021/12/25 07:48:20;;;;;;;33.77;14.67;;;2.70;99.90;;;;;;5003456;28;20189;-60
2021/12/25 07:50:47;;;;;;;59.30;14.93;;;2.70;99.90;;;;;;5022716;28;20474;-59
2021/12/25 07:53:13;;;;;;;28.07;13.60;;;2.80;99.90;;;;;;5005063;28;20467;-60
2021/12/25 07:55:38;;;;;;;61.27;15.13;;;2.80;99.90;;;;;;5005244;28;20463;-60
2021/12/25 07:58:07;;;;;;;42.83;14.67;;;2.80;99.90;;;;;;5007847;28;20184;-60
2021/12/25 08:00:32;;;;;;;87.67;16.73;;;2.80;99.90;;;;;;5001677;28;20179;-61
2021/12/25 08:02:58;;;;;;;86.27;13.60;;;2.80;99.90;;;;;;5005640;28;20427;-62
2021/12/25 08:05:24;;;;;;;59.33;13.20;;;2.80;99.90;;;;;;5005580;28;20827;-60
2021/12/25 08:07:49;;;;;;;72.30;14.20;;;2.70;99.90;;;;;;5005293;28;20185;-61
2021/12/25 08:10:18;;;;;;;47.43;13.10;;;2.70;99.90;;;;;;5001465;28;20180;-61
2021/12/25 08:12:47;;;;;;;97.30;15.70;;;2.70;99.90;;;;;;5020417;28;20322;-60
2021/12/25 08:15:14;;;;;;;37.20;12.80;;;2.70;99.90;;;;;;5003596;28;20996;-60
2021/12/25 08:17:40;;;;;;;53.90;14.63;;;2.70;99.90;;;;;;5005855;28;20465;-59
2021/12/25 08:20:08;;;;;;;54.57;14.00;;;2.70;99.90;;;;;;5006596;28;20439;-61
2021/12/25 08:22:34;;;;;;;131.33;15.37;;;2.70;99.90;;;;;;5001293;28;20918;-60
2021/12/25 08:24:59;;;;;;;104.83;16.83;;;2.70;99.90;;;;;;5006710;28;20442;-61
2021/12/25 08:27:25;;;;;;;66.70;16.30;;;2.70;99.90;;;;;;5005339;28;20463;-61
2021/12/25 08:29:51;;;;;;;41.40;15.50;;;2.70;99.90;;;;;;5007136;28;20179;-60
2021/12/25 08:32:16;;;;;;;84.70;17.37;;;2.70;99.90;;;;;;5004744;28;20188;-61
2021/12/25 08:34:43;;;;;;;67.83;16.97;;;2.80;99.90;;;;;;5020981;28;20181;-61
2021/12/25 08:37:09;;;;;;;44.23;16.30;;;2.80;99.90;;;;;;5003924;28;20204;-61
2021/12/25 08:39:35;;;;;;;30.27;12.67;;;2.80;99.90;;;;;;5005310;28;20506;-60
2021/12/25 08:42:03;;;;;;;30.33;13.90;;;2.80;99.90;;;;;;5004368;28;20859;-61
2021/12/25 08:44:52;;;;;;;28.63;12.93;;;2.80;99.90;;;;;;5005742;28;20443;-61
2021/12/25 08:47:16;;;;;;;29.30;13.33;;;2.80;99.90;;;;;;5005248;28;20867;-59
2021/12/25 08:49:42;;;;;;;35.60;14.70;;;2.90;99.90;;;;;;5005426;28;20456;-61
2021/12/25 08:52:15;;;;;;;26.70;12.07;;;2.90;99.90;;;;;;5004712;28;20232;-59
2021/12/25 08:54:42;;;;;;;35.60;15.47;;;2.90;99.90;;;;;;5007784;28;20183;-61
2021/12/25 08:57:09;;;;;;;27.03;12.87;;;3.00;99.90;;;;;;5006374;28;20434;-59
2021/12/25 08:59:38;;;;;;;30.77;12.63;;;3.00;99.90;;;;;;5006743;28;21162;-60
2021/12/25 09:02:09;;;;;;;30.13;13.50;;;3.00;99.90;;;;;;5005567;28;20818;-60
2021/12/25 09:04:36;;;;;;;27.23;13.70;;;3.10;99.90;;;;;;5005254;28;20446;-60
2021/12/25 09:07:03;;;;;;;31.97;13.70;;;3.10;99.90;;;;;;5003900;28;21005;-61
2021/12/25 09:09:28;;;;;;;39.73;14.50;;;3.10;99.90;;;;;;5006050;28;20934;-60
2021/12/25 09:11:57;;;;;;;31.67;14.93;;;3.20;99.90;;;;;;5005227;28;20480;-61
2021/12/25 09:14:23;;;;;;;36.13;15.67;;;3.20;99.90;;;;;;4999463;28;20212;-60
2021/12/25 09:16:49;;;;;;;37.83;17.73;;;3.20;99.90;;;;;;4997440;28;20790;-59
2021/12/25 09:19:15;;;;;;;36.27;17.47;;;3.30;99.90;;;;;;5003276;28;20259;-58
2021/12/25 09:21:41;;;;;;;39.33;17.63;;;3.30;99.90;;;;;;5003272;28;20424;-59
2021/12/25 09:24:10;;;;;;;38.73;15.80;;;3.40;99.90;;;;;;5000862;28;20442;-60
2021/12/25 09:26:35;;;;;;;43.67;18.07;;;3.40;99.90;;;;;;5003531;28;20593;-60
2021/12/25 09:29:01;;;;;;;44.47;19.00;;;3.40;99.90;;;;;;5006201;28;20423;-59
2021/12/25 09:31:27;;;;;;;37.80;17.97;;;3.40;99.90;;;;;;5005144;28;20600;-58
2021/12/25 09:33:53;;;;;;;39.20;17.80;;;3.40;99.90;;;;;;5000268;28;20204;-57
2021/12/25 09:36:20;;;;;;;39.90;18.13;;;3.50;99.90;;;;;;4999486;28;20516;-60
2021/12/25 09:38:47;;;;;;;36.20;17.60;;;3.50;99.90;;;;;;5001703;28;20810;-60
2021/12/25 09:41:14;;;;;;;39.07;18.20;;;3.50;99.90;;;;;;5020895;28;21019;-60
2021/12/25 09:43:40;;;;;;;37.20;17.40;;;3.50;99.90;;;;;;5004922;28;20427;-60
2021/12/25 09:46:07;;;;;;;35.43;16.47;;;3.60;99.90;;;;;;5001206;28;20458;-58
2021/12/25 09:48:33;;;;;;;47.70;18.77;;;3.60;99.90;;;;;;5004469;28;20431;-59
2021/12/25 09:50:59;;;;;;;45.20;18.13;;;3.60;99.90;;;;;;5007779;28;21129;-59
2021/12/25 09:53:28;;;;;;;36.73;15.47;;;3.60;99.90;;;;;;5004576;28;20540;-60
2021/12/25 09:55:54;;;;;;;34.70;17.00;;;3.70;99.90;;;;;;5006759;28;20840;-60
2021/12/25 09:58:20;;;;;;;36.43;15.00;;;3.70;99.90;;;;;;5006134;28;20446;-58
2021/12/25 10:00:48;;;;;;;33.50;14.53;;;3.70;99.90;;;;;;5007021;28;20439;-61
2021/12/25 10:03:14;;;;;;;30.57;15.57;;;3.70;99.90;;;;;;5006596;28;20460;-60
2021/12/25 10:05:43;;;;;;;32.13;14.00;;;3.70;99.90;;;;;;5008367;28;20531;-60
2021/12/25 10:08:24;;;;;;;30.70;14.47;;;3.70;99.90;;;;;;5005781;28;20486;-60
2021/12/25 10:10:51;;;;;;;27.10;13.67;;;3.70;99.90;;;;;;5008702;28;20464;-60
2021/12/25 10:13:25;;;;;;;34.47;16.90;;;3.70;99.90;;;;;;5004497;28;20447;-58
2021/12/25 10:15:54;;;;;;;32.30;15.60;;;3.70;99.90;;;;;;5006936;28;20443;-61
2021/12/25 10:18:30;;;;;;;28.30;13.93;;;3.70;99.90;;;;;;5006080;28;20431;-59
2021/12/25 10:20:56;;;;;;;30.20;14.23;;;3.70;99.90;;;;;;5003294;28;20439;-61
2021/12/25 10:23:29;;;;;;;29.50;14.80;;;3.80;99.90;;;;;;5008183;28;20442;-60
2021/12/25 10:25:59;;;;;;;29.33;14.17;;;3.80;99.90;;;;;;5010339;28;20821;-60
2021/12/25 10:28:35;;;;;;;31.03;14.77;;;3.80;99.90;;;;;;5008802;28;20417;-60
2021/12/25 10:31:34;;;;;;;30.00;14.33;;;3.90;99.90;;;;;;5005975;28;20434;-59
2021/12/25 10:34:22;;;;;;;29.60;13.37;;;3.90;99.90;;;;;;5003192;28;20459;-59
2021/12/25 10:36:49;;;;;;;31.50;15.60;;;4.00;99.90;;;;;;5008137;28;20505;-61
2021/12/25 10:39:21;;;;;;;29.37;14.97;;;4.00;99.90;;;;;;5008637;28;20418;-60
2021/12/25 10:41:57;;;;;;;32.07;14.10;;;4.00;99.90;;;;;;5006870;28;21014;-61
2021/12/25 10:44:24;;;;;;;33.23;16.03;;;4.10;99.90;;;;;;5004300;28;20446;-60
2021/12/25 10:47:03;;;;;;;31.03;14.87;;;4.10;99.90;;;;;;5006378;28;20551;-59
2021/12/25 10:49:38;;;;;;;38.23;18.60;;;4.10;99.90;;;;;;5003564;28;20435;-58
2021/12/25 10:52:11;;;;;;;28.60;14.20;;;4.10;99.90;;;;;;5004674;28;20434;-58
2021/12/25 10:54:46;;;;;;;30.13;15.13;;;4.10;99.90;;;;;;5009222;28;20460;-58
2021/12/25 10:57:32;;;;;;;33.30;15.80;;;4.10;99.90;;;;;;5008238;28;20459;-60
2021/12/25 10:59:58;;;;;;;26.53;13.60;;;4.20;99.90;;;;;;5005714;28;20847;-60
2021/12/25 11:02:35;;;;;;;21.00;11.47;;;4.20;99.90;;;;;;5001129;28;20934;-60
2021/12/25 11:05:15;;;;;;;25.17;12.60;;;4.30;99.90;;;;;;4999896;28;20901;-60
2021/12/25 11:07:40;;;;;;;25.23;12.20;;;4.30;99.90;;;;;;5001944;28;20976;-59
2021/12/25 11:10:10;;;;;;;24.77;12.60;;;4.40;99.90;;;;;;5002753;28;20471;-60
2021/12/25 11:12:36;;;;;;;29.37;14.60;;;4.40;99.90;;;;;;4998211;28;20164;-61
2021/12/25 11:15:22;;;;;;;26.87;14.60;;;4.50;99.90;;;;;;5000920;28;20518;-60
2021/12/25 11:17:52;;;;;;;41.03;20.63;;;4.50;99.90;;;;;;4995726;28;21272;-61
2021/12/25 11:20:47;;;;;;;37.07;19.37;;;4.60;99.90;;;;;;5001249;28;20427;-61
2021/12/25 11:23:15;;;;;;;30.13;16.53;;;4.70;99.90;;;;;;4985775;28;20444;-61
2021/12/25 11:25:43;;;;;;;33.70;18.13;;;4.70;99.90;;;;;;5019570;28;20537;-61
2021/12/25 11:28:12;;;;;;;34.30;18.27;;;4.80;99.90;;;;;;5007198;28;20984;-60
2021/12/25 11:30:41;;;;;;;30.10;16.80;;;4.80;99.90;;;;;;4995839;28;20806;-60
2021/12/25 11:33:07;;;;;;;27.93;15.37;;;4.90;99.90;;;;;;4979646;28;20525;-61
2021/12/25 11:35:34;;;;;;;33.80;18.73;;;4.90;99.90;;;;;;4990017;28;20443;-61
2021/12/25 11:38:03;;;;;;;38.93;19.53;;;4.90;99.90;;;;;;4997291;28;20176;-61
2021/12/25 11:40:30;;;;;;;37.63;18.20;;;4.90;99.90;;;;;;4995476;28;20493;-61
2021/12/25 11:42:59;;;;;;;36.23;18.80;;;4.90;99.90;;;;;;4997358;28;20486;-61
2021/12/25 11:45:35;;;;;;;33.60;17.03;;;4.90;99.90;;;;;;4996476;28;20439;-61
2021/12/25 11:48:32;;;;;;;36.33;17.20;;;4.90;99.90;;;;;;4996247;28;20569;-60
2021/12/25 11:50:57;;;;;;;32.10;16.67;;;4.90;99.90;;;;;;4975398;28;20431;-60
2021/12/25 11:58:40;;;;;;;25.50;14.67;;;4.90;99.90;;;;;;5002631;28;20530;-61
2021/12/25 12:01:16;;;;;;;28.83;15.20;;;4.90;99.90;;;;;;4995530;28;20463;-61
2021/12/25 12:03:44;;;;;;;28.37;14.30;;;5.00;99.90;;;;;;5000533;28;20443;-61
2021/12/25 12:06:13;;;;;;;27.77;15.57;;;4.90;99.90;;;;;;4993405;28;20458;-60
2021/12/25 12:08:53;;;;;;;39.07;19.03;;;5.00;99.90;;;;;;4991507;28;20438;-60
2021/12/25 12:11:29;;;;;;;34.67;17.53;;;5.00;99.90;;;;;;4997511;28;20447;-57
2021/12/25 12:14:21;;;;;;;30.33;15.90;;;5.00;99.90;;;;;;4999984;28;20496;-59
2021/12/25 12:16:48;;;;;;;33.63;18.37;;;5.00;99.90;;;;;;4999418;28;20459;-60
2021/12/25 12:19:33;;;;;;;27.27;15.77;;;5.00;99.90;;;;;;5003498;28;20439;-57
2021/12/25 12:27:39;;;;;;;33.53;17.07;;;5.10;99.90;;;;;;5012182;28;20471;-60
2021/12/25 12:30:33;;;;;;;29.23;15.40;;;5.20;99.90;;;;;;5015808;28;20434;-59
2021/12/25 12:33:23;;;;;;;23.60;13.30;;;5.20;99.90;;;;;;5008020;28;20459;-60
2021/12/25 12:35:54;;;;;;;24.37;13.17;;;5.30;99.90;;;;;;5013849;28;20443;-61
2021/12/25 12:38:47;;;;;;;16.23;11.00;;;5.30;99.90;;;;;;5015292;28;20807;-60
2021/12/25 12:41:20;;;;;;;20.43;11.93;;;5.40;99.90;;;;;;5016030;28;20509;-59
2021/12/25 12:44:07;;;;;;;18.93;11.73;;;5.50;99.90;;;;;;5017021;28;20423;-61
2021/12/25 12:46:48;;;;;;;20.73;12.07;;;5.50;99.90;;;;;;4995547;28;20439;-60
2021/12/25 12:49:19;;;;;;;21.33;11.70;;;5.60;99.90;;;;;;5011666;28;20435;-61
2021/12/25 12:51:46;;;;;;;18.70;9.97;;;5.60;99.90;;;;;;5010327;28;20438;-60
2021/12/25 12:54:38;;;;;;;20.20;11.23;;;5.70;99.90;;;;;;5002591;28;20784;-60
2021/12/25 12:57:04;;;;;;;21.57;12.33;;;5.70;99.90;;;;;;5014757;28;20450;-60
2021/12/25 12:59:50;;;;;;;18.97;11.73;;;5.70;99.90;;;;;;5018876;28;20430;-59
2021/12/25 13:02:18;;;;;;;16.97;9.57;;;5.80;99.90;;;;;;5001753;28;20547;-59
2021/12/25 13:04:46;;;;;;;16.30;9.50;;;5.80;99.90;;;;;;5000198;28;20502;-60
2021/12/25 13:07:14;;;;;;;30.47;17.63;;;5.80;99.90;;;;;;5021239;28;20456;-60
2021/12/25 13:09:50;;;;;;;31.20;17.60;;;5.80;99.90;;;;;;5007194;28;20430;-60
2021/12/25 13:12:30;;;;;;;36.20;19.50;;;5.90;99.90;;;;;;4999763;28;20446;-60
2021/12/25 13:15:02;;;;;;;33.27;18.43;;;5.80;99.90;;;;;;5018903;28;20435;-59
2021/12/25 13:17:28;;;;;;;30.77;17.70;;;5.90;99.90;;;;;;5013119;28;20985;-60
2021/12/25 13:19:53;;;;;;;25.53;13.93;;;5.90;99.90;;;;;;5005175;28;20431;-59
2021/12/25 13:22:20;;;;;;;22.80;13.47;;;5.90;99.90;;;;;;5008174;28;20175;-60
2021/12/25 13:24:47;;;;;;;26.67;15.77;;;5.90;99.90;;;;;;5019557;28;20168;-58
2021/12/25 13:27:19;;;;;;;25.27;15.03;;;5.90;99.90;;;;;;5021068;28;20451;-59
2021/12/25 13:29:44;;;;;;;29.93;16.47;;;5.90;99.90;;;;;;5019243;28;20953;-60
2021/12/25 13:32:11;;;;;;;30.27;17.83;;;5.90;99.90;;;;;;5021929;28;20513;-60
2021/12/25 13:34:40;;;;;;;24.30;14.30;;;5.90;99.90;;;;;;5024560;28;20215;-60
2021/12/25 13:37:13;;;;;;;16.97;9.60;;;6.00;99.90;;;;;;4996541;28;20497;-59
2021/12/25 13:39:41;;;;;;;22.90;11.97;;;5.90;99.90;;;;;;5019832;28;20458;-61
2021/12/25 13:42:07;;;;;;;26.03;16.23;;;6.00;99.90;;;;;;5017825;28;20420;-60
2021/12/25 13:44:36;;;;;;;23.17;13.80;;;6.00;99.90;;;;;;5001463;28;20959;-60
2021/12/25 13:47:03;;;;;;;20.63;12.83;;;6.00;99.90;;;;;;5019892;28;20702;-60
2021/12/25 13:49:42;;;;;;;17.20;10.30;;;6.00;99.90;;;;;;5001851;28;20415;-60
2021/12/25 13:52:21;;;;;;;20.17;10.43;;;6.00;99.90;;;;;;5017848;28;20450;-60
2021/12/25 13:55:02;;;;;;;15.00;8.40;;;6.00;99.90;;;;;;5006854;28;20455;-60
2021/12/25 13:57:29;;;;;;;14.73;8.63;;;6.00;99.90;;;;;;5017668;28;20450;-60
2021/12/25 13:59:58;;;;;;;15.13;8.47;;;6.00;99.90;;;;;;5021343;28;20418;-61
2021/12/25 14:02:25;;;;;;;15.70;8.83;;;6.00;99.90;;;;;;5021244;28;20469;-58
2021/12/25 14:04:52;;;;;;;14.87;8.17;;;6.10;99.90;;;;;;5021066;28;20412;-60
2021/12/25 14:07:22;;;;;;;13.50;7.80;;;6.00;99.90;;;;;;5013102;28;20826;-60
2021/12/25 14:09:54;;;;;;;16.83;9.10;;;6.00;99.90;;;;;;5011661;28;20466;-60
2021/12/25 14:12:22;;;;;;;13.70;9.00;;;6.00;99.90;;;;;;5012331;28;20980;-60